createdAt,value
2022-12-16T00:01:18.000Z,50.1
2022-12-16T00:04:46.000Z,42.8
2022-12-16T00:08:14.000Z,38.5
2022-12-16T00:11:42.000Z,40.8
2022-12-16T00:15:10.000Z,33.8
2022-12-16T00:18:37.000Z,39.4
2022-12-16T00:22:05.000Z,36.7
2022-12-16T00:25:33.000Z,52.6
2022-12-16T00:29:01.000Z,47.4
2022-12-16T00:32:29.000Z,46
2022-12-16T00:35:12.000Z,47.7
2022-12-16T00:38:40.000Z,42.9
2022-12-16T00:42:08.000Z,45.5
2022-12-16T00:45:36.000Z,42.1
2022-12-16T00:49:04.000Z,40.3
2022-12-16T00:52:31.000Z,48.1
2022-12-16T00:55:59.000Z,54.4
2022-12-16T00:59:27.000Z,39.3
2022-12-16T01:02:55.000Z,37.9
2022-12-16T01:06:23.000Z,28.4
2022-12-16T01:09:51.000Z,35.7
2022-12-16T01:12:40.000Z,32.8
2022-12-16T01:16:08.000Z,36.4
2022-12-16T01:19:36.000Z,32.2
2022-12-16T01:23:04.000Z,39.9
2022-12-16T01:26:32.000Z,37
2022-12-16T01:30:00.000Z,42.6
2022-12-16T01:33:28.000Z,44.6
2022-12-16T01:36:56.000Z,35.9
2022-12-16T01:40:24.000Z,34.7
2022-12-16T01:43:52.000Z,30.8
2022-12-16T01:47:20.000Z,34.4
2022-12-16T01:50:09.000Z,36.1
2022-12-16T01:53:37.000Z,30.8
2022-12-16T01:57:05.000Z,33.1
2022-12-16T02:00:33.000Z,28
2022-12-16T02:04:01.000Z,27.2
2022-12-16T02:07:29.000Z,29.1
2022-12-16T02:10:57.000Z,44.8
2022-12-16T02:14:25.000Z,41.2
2022-12-16T02:17:52.000Z,43.5
2022-12-16T02:21:20.000Z,43.5
2022-12-16T02:24:48.000Z,34.2
2022-12-16T02:27:37.000Z,38.6
2022-12-16T02:31:05.000Z,34.6
2022-12-16T02:34:33.000Z,33.4
2022-12-16T02:38:00.000Z,31
2022-12-16T02:41:28.000Z,32.4
2022-12-16T02:44:56.000Z,37.8
2022-12-16T02:48:24.000Z,39.1
2022-12-16T02:51:52.000Z,38.1
2022-12-16T02:55:20.000Z,38.9
2022-12-16T02:58:48.000Z,33.4
2022-12-16T03:02:15.000Z,33.2
2022-12-16T03:05:05.000Z,31.8
2022-12-16T03:08:33.000Z,27.9
2022-12-16T03:12:01.000Z,24.3
2022-12-16T03:15:29.000Z,20.3
2022-12-16T03:18:57.000Z,27.7
2022-12-16T03:22:25.000Z,27.9
2022-12-16T03:25:53.000Z,22.7
2022-12-16T03:29:21.000Z,25.2
2022-12-16T03:32:48.000Z,22.6
2022-12-16T03:36:16.000Z,23.5
2022-12-16T03:39:44.000Z,21.9
2022-12-16T03:42:33.000Z,24.4
2022-12-16T03:46:01.000Z,21.1
2022-12-16T03:49:29.000Z,22.6
2022-12-16T03:52:57.000Z,22.1
2022-12-16T03:56:25.000Z,23.6
2022-12-16T03:59:53.000Z,20.4
2022-12-16T04:03:21.000Z,16.3
2022-12-16T04:06:49.000Z,19.4
2022-12-16T04:10:16.000Z,27.8
2022-12-16T04:13:44.000Z,23.3
2022-12-16T04:17:12.000Z,25.2
2022-12-16T04:20:01.000Z,23.7
2022-12-16T04:23:29.000Z,24.9
2022-12-16T04:26:57.000Z,26.4
2022-12-16T04:30:25.000Z,25.3
2022-12-16T04:33:53.000Z,20.4
2022-12-16T04:37:21.000Z,27
2022-12-16T04:40:48.000Z,25.9
2022-12-16T04:44:16.000Z,25.6
2022-12-16T04:47:44.000Z,22.2
2022-12-16T04:51:17.000Z,23.8
2022-12-16T04:54:45.000Z,23
2022-12-16T04:57:35.000Z,19.4
2022-12-16T05:01:02.000Z,19.8
2022-12-16T05:04:30.000Z,34.4
2022-12-16T05:07:58.000Z,25.5
2022-12-16T05:11:26.000Z,26
2022-12-16T05:14:54.000Z,23.3
2022-12-16T05:18:22.000Z,25.9
2022-12-16T05:21:50.000Z,25.5
2022-12-16T05:25:18.000Z,22.6
2022-12-16T05:28:45.000Z,36.2
2022-12-16T05:32:13.000Z,29.7
2022-12-16T05:35:02.000Z,29.7
2022-12-16T05:38:30.000Z,26.5
2022-12-16T05:41:58.000Z,24.4
2022-12-16T05:45:27.000Z,23.6
2022-12-16T05:48:55.000Z,26.9
2022-12-16T05:52:23.000Z,24.4
2022-12-16T05:55:50.000Z,28.1
2022-12-16T05:59:18.000Z,30.6
2022-12-16T06:02:46.000Z,27.5
2022-12-16T06:06:15.000Z,23.1
2022-12-16T06:09:42.000Z,23.1
2022-12-16T06:12:38.000Z,24.1
2022-12-16T06:16:06.000Z,19.9
2022-12-16T06:19:34.000Z,21.7
2022-12-16T06:23:02.000Z,28.5
2022-12-16T06:26:30.000Z,28.3
2022-12-16T06:29:57.000Z,28.7
2022-12-16T06:33:25.000Z,21.7
2022-12-16T06:36:54.000Z,20.3
2022-12-16T06:40:21.000Z,20
2022-12-16T06:43:49.000Z,24
2022-12-16T06:47:17.000Z,40
2022-12-16T06:50:06.000Z,24.4
2022-12-16T06:53:34.000Z,26.6
2022-12-16T06:57:02.000Z,18.7
2022-12-16T07:00:29.000Z,20.3
2022-12-16T07:03:58.000Z,17.9
2022-12-16T07:07:26.000Z,19.4
2022-12-16T07:10:54.000Z,21.7
2022-12-16T07:14:37.000Z,21.5
2022-12-16T07:18:05.000Z,23.6
2022-12-16T07:21:32.000Z,18.7
2022-12-16T07:25:09.000Z,20.7
2022-12-16T07:27:58.000Z,23.1
2022-12-16T07:31:34.000Z,22.4
2022-12-16T07:35:02.000Z,21.5
2022-12-16T07:38:29.000Z,23.1
2022-12-16T07:41:57.000Z,19.9
2022-12-16T07:45:25.000Z,18
2022-12-16T07:48:54.000Z,27.6
2022-12-16T07:52:22.000Z,25.2
2022-12-16T07:55:49.000Z,20.4
2022-12-16T07:59:17.000Z,22.8
2022-12-16T08:02:45.000Z,22
2022-12-16T08:05:37.000Z,25.3
2022-12-16T08:09:05.000Z,24
2022-12-16T08:12:33.000Z,19.7
2022-12-16T08:16:00.000Z,18.9
2022-12-16T08:19:28.000Z,22.2
2022-12-16T08:22:56.000Z,16.5
2022-12-16T08:26:24.000Z,22.1
2022-12-16T08:29:52.000Z,27.5
2022-12-16T08:33:20.000Z,23.8
2022-12-16T08:36:48.000Z,23.1
2022-12-16T08:40:16.000Z,21.9
2022-12-16T08:43:17.000Z,17.3
2022-12-16T08:46:45.000Z,16
2022-12-16T08:50:13.000Z,20.1
2022-12-16T08:53:41.000Z,13.8
2022-12-16T08:57:09.000Z,19.1
2022-12-16T09:00:37.000Z,21.6
2022-12-16T09:04:05.000Z,18.1
2022-12-16T09:07:33.000Z,20.5
2022-12-16T09:11:01.000Z,21.6
2022-12-16T09:14:28.000Z,22.8
2022-12-16T09:17:56.000Z,20.5
2022-12-16T09:20:45.000Z,22.6
2022-12-16T09:24:14.000Z,20.2
2022-12-16T09:27:42.000Z,26.2
2022-12-16T09:31:09.000Z,20.6
2022-12-16T09:34:37.000Z,20.2
2022-12-16T09:38:05.000Z,23.8
2022-12-16T09:41:33.000Z,22.4
2022-12-16T09:45:05.000Z,23
2022-12-16T09:48:33.000Z,21.5
2022-12-16T09:52:01.000Z,21.4
2022-12-16T09:55:32.000Z,22.9
2022-12-16T09:58:22.000Z,30.6
2022-12-16T10:01:50.000Z,23.5
2022-12-16T10:05:18.000Z,21.7
2022-12-16T10:08:46.000Z,16.6
2022-12-16T10:12:14.000Z,21.9
2022-12-16T10:15:42.000Z,26
2022-12-16T10:19:10.000Z,25.1
2022-12-16T10:22:38.000Z,21.5
2022-12-16T10:26:06.000Z,20.9
2022-12-16T10:29:34.000Z,23.8
2022-12-16T10:33:02.000Z,23.9
2022-12-16T10:35:51.000Z,24.3
2022-12-16T10:39:19.000Z,23.3
2022-12-16T10:42:47.000Z,22
2022-12-16T10:46:15.000Z,19.6
2022-12-16T10:49:44.000Z,21.4
2022-12-16T10:53:15.000Z,20.1
2022-12-16T10:56:43.000Z,19.6
2022-12-16T11:00:11.000Z,20.4
2022-12-16T11:03:39.000Z,22.9
2022-12-16T11:07:07.000Z,21
2022-12-16T11:10:35.000Z,24.2
2022-12-16T11:13:25.000Z,22.3
2022-12-16T11:17:24.000Z,21.7
2022-12-16T11:20:52.000Z,22.7
2022-12-16T11:24:25.000Z,21.3
2022-12-16T11:27:53.000Z,21
2022-12-16T11:31:21.000Z,23.8
2022-12-16T11:34:49.000Z,20.3
2022-12-16T11:38:17.000Z,22.1
2022-12-16T11:41:45.000Z,21.4
2022-12-16T11:45:13.000Z,20.8
2022-12-16T11:48:41.000Z,17
2022-12-16T11:51:30.000Z,22.1
2022-12-16T11:54:58.000Z,17.6
2022-12-16T11:58:26.000Z,20
2022-12-16T12:01:54.000Z,20.6
2022-12-16T12:05:22.000Z,19.5
2022-12-16T12:08:50.000Z,18.6
2022-12-16T12:12:17.000Z,19.3
2022-12-16T12:15:45.000Z,18.1
2022-12-16T12:19:14.000Z,16.6
2022-12-16T12:22:42.000Z,17.2
2022-12-16T12:26:10.000Z,17.6
2022-12-16T12:28:59.000Z,17.7
2022-12-16T12:32:27.000Z,15.9
2022-12-16T12:35:55.000Z,14.7
2022-12-16T12:39:22.000Z,16.7
2022-12-16T12:42:50.000Z,16.8
2022-12-16T12:46:20.000Z,12.9
2022-12-16T12:49:48.000Z,16.1
2022-12-16T12:53:16.000Z,16.1
2022-12-16T12:56:44.000Z,14.9
2022-12-16T13:00:12.000Z,16.5
2022-12-16T13:03:40.000Z,15.7
2022-12-16T13:06:29.000Z,16
2022-12-16T13:09:57.000Z,15.3
2022-12-16T13:13:31.000Z,17.2
2022-12-16T13:16:59.000Z,18.1
2022-12-16T13:20:27.000Z,19.5
2022-12-16T13:23:55.000Z,18.6
2022-12-16T13:27:22.000Z,17.7
2022-12-16T13:30:50.000Z,15.5
2022-12-16T13:34:18.000Z,17.6
2022-12-16T13:37:46.000Z,19.6
2022-12-16T13:41:14.000Z,16.4
2022-12-16T13:44:03.000Z,14.8
2022-12-16T13:47:31.000Z,13.7
2022-12-16T13:50:58.000Z,15.1
2022-12-16T13:54:26.000Z,15.1
2022-12-16T13:57:54.000Z,15.8
2022-12-16T14:01:22.000Z,13.9
2022-12-16T14:06:58.000Z,13.3
2022-12-16T14:10:26.000Z,16.3
2022-12-16T14:13:54.000Z,15.2
2022-12-16T14:17:22.000Z,15.7
2022-12-16T14:20:50.000Z,13.1
2022-12-16T14:23:33.000Z,13.1
2022-12-16T14:27:24.000Z,15.3
2022-12-16T14:30:51.000Z,17.1
2022-12-16T14:34:19.000Z,14.6
2022-12-16T14:37:47.000Z,13.4
2022-12-16T14:41:15.000Z,12.4
2022-12-16T14:44:43.000Z,15.6
2022-12-16T14:48:11.000Z,16.4
2022-12-16T14:51:39.000Z,15.1
2022-12-16T14:55:06.000Z,14
2022-12-16T14:58:34.000Z,12
2022-12-16T15:03:30.000Z,18.1
2022-12-16T15:06:59.000Z,12.7
2022-12-16T15:10:27.000Z,19
2022-12-16T15:13:55.000Z,12.5
2022-12-16T15:17:24.000Z,13.8
2022-12-16T15:20:53.000Z,14.3
2022-12-16T15:24:20.000Z,13.6
2022-12-16T15:27:48.000Z,12.4
2022-12-16T15:31:16.000Z,14.9
2022-12-16T15:34:44.000Z,12.4
2022-12-16T15:38:12.000Z,14
2022-12-16T15:40:55.000Z,14.9
2022-12-16T15:44:23.000Z,12.1
2022-12-16T15:47:51.000Z,13.1
2022-12-16T15:51:19.000Z,12.1
2022-12-16T15:54:47.000Z,15.5
2022-12-16T15:58:15.000Z,14
2022-12-16T16:01:43.000Z,14.9
2022-12-16T16:05:11.000Z,12
2022-12-16T16:08:39.000Z,15.8
2022-12-16T16:12:07.000Z,13.7
2022-12-16T16:15:35.000Z,12
2022-12-16T16:18:24.000Z,12.8
2022-12-16T16:21:59.000Z,11.5
2022-12-16T16:25:27.000Z,11.9
2022-12-16T16:28:55.000Z,12.1
2022-12-16T16:32:23.000Z,12
2022-12-16T16:35:51.000Z,11.3
2022-12-16T16:39:19.000Z,127.4
2022-12-16T16:42:47.000Z,108
2022-12-16T16:46:16.000Z,23.4
2022-12-16T16:49:44.000Z,68.4
2022-12-16T16:53:12.000Z,61.2
2022-12-16T16:56:01.000Z,24.6
2022-12-16T16:59:29.000Z,12.7
2022-12-16T17:02:57.000Z,19.8
2022-12-16T17:06:25.000Z,21.1
2022-12-16T17:09:53.000Z,13.2
2022-12-16T17:13:21.000Z,12.3
2022-12-16T17:16:49.000Z,17
2022-12-16T17:20:17.000Z,11
2022-12-16T17:23:44.000Z,12.7
2022-12-16T17:27:12.000Z,14
2022-12-16T17:30:40.000Z,18.9
2022-12-16T17:33:29.000Z,13.6
2022-12-16T17:36:58.000Z,13.8
2022-12-16T17:40:26.000Z,17.1
2022-12-16T17:43:54.000Z,20.4
2022-12-16T17:47:21.000Z,18
2022-12-16T17:50:49.000Z,41.1
2022-12-16T17:54:17.000Z,46
2022-12-16T17:57:49.000Z,27.2
2022-12-16T18:01:17.000Z,25.2
2022-12-16T18:04:46.000Z,29.2
2022-12-16T18:08:14.000Z,18
2022-12-16T18:11:03.000Z,11.5
2022-12-16T18:14:31.000Z,10.3
2022-12-16T18:17:59.000Z,13
2022-12-16T18:21:27.000Z,9.9
2022-12-16T18:24:54.000Z,12.4
2022-12-16T18:28:22.000Z,16.8
2022-12-16T18:31:50.000Z,12.3
2022-12-16T18:35:18.000Z,12.1
2022-12-16T18:38:46.000Z,15.3
2022-12-16T18:42:14.000Z,12.2
2022-12-16T18:45:41.000Z,15.7
2022-12-16T18:48:31.000Z,15.6
2022-12-16T18:51:58.000Z,15.4
2022-12-16T18:55:27.000Z,13.7
2022-12-16T18:58:54.000Z,11.4
2022-12-16T19:02:23.000Z,14.7
2022-12-16T19:05:51.000Z,16.9
2022-12-16T19:09:18.000Z,14.6
2022-12-16T19:12:46.000Z,13.5
2022-12-16T19:16:14.000Z,24.1
2022-12-16T19:19:42.000Z,26.5
2022-12-16T19:23:10.000Z,16.7
2022-12-16T19:25:59.000Z,18.8
2022-12-16T19:29:27.000Z,22.2
2022-12-16T19:32:55.000Z,18.2
2022-12-16T19:36:23.000Z,23.2
2022-12-16T19:39:52.000Z,17.4
2022-12-16T19:43:20.000Z,18.8
2022-12-16T19:46:52.000Z,64
2022-12-16T19:50:19.000Z,46.8
2022-12-16T19:53:47.000Z,34.5
2022-12-16T19:57:16.000Z,19
2022-12-16T20:00:44.000Z,26.5
2022-12-16T20:03:33.000Z,23.9
2022-12-16T20:07:01.000Z,29.4
2022-12-16T20:10:29.000Z,31.3
2022-12-16T20:13:57.000Z,39.3
2022-12-16T20:17:25.000Z,27.2
2022-12-16T20:20:53.000Z,24.8
2022-12-16T20:24:21.000Z,27
2022-12-16T20:27:52.000Z,27.6
2022-12-16T20:31:20.000Z,22.7
2022-12-16T20:34:52.000Z,24.5
2022-12-16T20:38:20.000Z,20.8
2022-12-16T20:41:09.000Z,21
2022-12-16T20:44:37.000Z,21.8
2022-12-16T20:48:05.000Z,23.5
2022-12-16T20:51:33.000Z,30.7
2022-12-16T20:55:01.000Z,26.9
2022-12-16T20:58:29.000Z,26.5
2022-12-16T21:01:57.000Z,28.3
2022-12-16T21:23:52.000Z,51.3
2022-12-16T21:27:21.000Z,44.4
2022-12-16T21:30:52.000Z,59.1
2022-12-16T21:34:20.000Z,37.8
2022-12-16T21:37:47.000Z,30.4
2022-12-16T21:41:16.000Z,18.2
2022-12-16T21:44:44.000Z,23.1
2022-12-16T21:48:12.000Z,12.3
2022-12-16T21:51:40.000Z,20.8
2022-12-16T21:55:08.000Z,32.5
2022-12-16T21:58:36.000Z,24.1
2022-12-16T22:01:25.000Z,30.3
2022-12-16T22:04:53.000Z,31.4
2022-12-16T22:08:21.000Z,34.3
2022-12-16T22:11:52.000Z,39.3
2022-12-16T22:15:20.000Z,32.7
2022-12-16T22:18:48.000Z,31.6
2022-12-16T22:22:16.000Z,42.9
2022-12-16T22:25:44.000Z,35
2022-12-16T22:29:13.000Z,29.6
2022-12-16T22:32:41.000Z,44.4
2022-12-16T22:36:09.000Z,45.9
2022-12-16T22:38:58.000Z,51.5
2022-12-16T22:42:26.000Z,42.8
2022-12-16T22:45:54.000Z,35.7
2022-12-16T22:49:22.000Z,50.9
2022-12-16T22:52:52.000Z,46.6
2022-12-16T22:56:20.000Z,63.4
2022-12-16T22:59:49.000Z,77
2022-12-16T23:03:17.000Z,45.5
2022-12-16T23:06:45.000Z,37.7
2022-12-16T23:10:16.000Z,28.8
2022-12-16T23:13:44.000Z,30.6
2022-12-16T23:16:33.000Z,37.1
2022-12-16T23:20:01.000Z,25
2022-12-16T23:23:30.000Z,32.2
2022-12-16T23:26:58.000Z,26.4
2022-12-16T23:30:26.000Z,24.5
2022-12-16T23:33:54.000Z,25.9
2022-12-16T23:37:22.000Z,23.8
2022-12-16T23:40:52.000Z,31.5
2022-12-16T23:44:20.000Z,26.6
2022-12-16T23:47:47.000Z,28.2
2022-12-16T23:51:16.000Z,20.9
2022-12-16T23:54:05.000Z,35.5
2022-12-16T23:57:33.000Z,32.6
